sensor_id;sensor_type;location;lat;lon;timestamp;P1;durP1;ratioP1;P2;durP2;ratioP2
33840;SDS011;20142;28.494;-16.312;2024-02-21T00:00:20;19.33;;;3.28;;
33840;SDS011;20142;28.494;-16.312;2024-02-21T00:05:22;17.00;;;2.83;;
33840;SDS011;20142;28.494;-16.312;2024-02-21T00:10:24;14.90;;;2.55;;
33840;SDS011;20142;28.494;-16.312;2024-02-21T00:15:26;17.63;;;2.90;;
33840;SDS011;20142;28.494;-16.312;2024-02-21T00:20:28;18.42;;;2.55;;
33840;SDS011;20142;28.494;-16.312;2024-02-21T00:25:29;18.95;;;2.65;;
33840;SDS011;20142;28.494;-16.312;2024-02-21T00:30:31;12.98;;;2.13;;
33840;SDS011;20142;28.494;-16.312;2024-02-21T00:35:33;14.85;;;2.25;;
33840;SDS011;20142;28.494;-16.312;2024-02-21T00:40:35;13.45;;;2.83;;
33840;SDS011;20142;28.494;-16.312;2024-02-21T00:45:36;18.00;;;2.70;;
33840;SDS011;20142;28.494;-16.312;2024-02-21T00:50:38;12.65;;;2.00;;
33840;SDS011;20142;28.494;-16.312;2024-02-21T00:55:40;18.38;;;2.60;;
33840;SDS011;20142;28.494;-16.312;2024-02-21T01:00:43;17.52;;;2.17;;
33840;SDS011;20142;28.494;-16.312;2024-02-21T01:05:45;15.07;;;2.60;;
33840;SDS011;20142;28.494;-16.312;2024-02-21T01:10:47;12.95;;;2.10;;
33840;SDS011;20142;28.494;-16.312;2024-02-21T01:15:49;17.13;;;2.30;;
33840;SDS011;20142;28.494;-16.312;2024-02-21T01:20:50;15.57;;;3.15;;
33840;SDS011;20142;28.494;-16.312;2024-02-21T01:25:52;19.35;;;2.45;;
33840;SDS011;20142;28.494;-16.312;2024-02-21T01:30:54;13.98;;;2.15;;
33840;SDS011;20142;28.494;-16.312;2024-02-21T01:35:56;19.83;;;2.33;;
33840;SDS011;20142;28.494;-16.312;2024-02-21T01:40:58;16.80;;;2.63;;
33840;SDS011;20142;28.494;-16.312;2024-02-21T01:46:00;13.10;;;2.33;;
33840;SDS011;20142;28.494;-16.312;2024-02-21T01:51:01;12.88;;;1.73;;
33840;SDS011;20142;28.494;-16.312;2024-02-21T01:56:06;9.68;;;1.85;;
33840;SDS011;20142;28.494;-16.312;2024-02-21T02:01:09;15.55;;;2.50;;
33840;SDS011;20142;28.494;-16.312;2024-02-21T02:06:11;11.05;;;2.05;;
33840;SDS011;20142;28.494;-16.312;2024-02-21T02:11:13;15.45;;;2.33;;
33840;SDS011;20142;28.494;-16.312;2024-02-21T02:16:16;14.45;;;2.13;;
33840;SDS011;20142;28.494;-16.312;2024-02-21T02:21:29;12.18;;;2.30;;
33840;SDS011;20142;28.494;-16.312;2024-02-21T02:26:33;21.67;;;2.70;;
33840;SDS011;20142;28.494;-16.312;2024-02-21T02:31:35;14.13;;;2.20;;
33840;SDS011;20142;28.494;-16.312;2024-02-21T02:36:38;13.25;;;2.00;;
33840;SDS011;20142;28.494;-16.312;2024-02-21T02:41:40;24.15;;;2.78;;
33840;SDS011;20142;28.494;-16.312;2024-02-21T02:46:41;17.65;;;2.53;;
33840;SDS011;20142;28.494;-16.312;2024-02-21T02:51:43;15.45;;;2.40;;
33840;SDS011;20142;28.494;-16.312;2024-02-21T03:01:56;14.65;;;2.42;;
33840;SDS011;20142;28.494;-16.312;2024-02-21T03:06:58;12.65;;;2.25;;
33840;SDS011;20142;28.494;-16.312;2024-02-21T03:11:59;10.13;;;1.85;;
33840;SDS011;20142;28.494;-16.312;2024-02-21T03:17:03;9.35;;;2.28;;
33840;SDS011;20142;28.494;-16.312;2024-02-21T03:22:05;10.73;;;1.92;;
33840;SDS011;20142;28.494;-16.312;2024-02-21T03:27:08;9.80;;;1.52;;
33840;SDS011;20142;28.494;-16.312;2024-02-21T03:32:10;15.73;;;2.75;;
33840;SDS011;20142;28.494;-16.312;2024-02-21T03:37:11;26.85;;;2.40;;
33840;SDS011;20142;28.494;-16.312;2024-02-21T03:42:14;10.63;;;1.92;;
33840;SDS011;20142;28.494;-16.312;2024-02-21T03:47:16;16.88;;;2.22;;
33840;SDS011;20142;28.494;-16.312;2024-02-21T03:52:17;15.25;;;2.30;;
33840;SDS011;20142;28.494;-16.312;2024-02-21T03:57:19;9.82;;;1.92;;
33840;SDS011;20142;28.494;-16.312;2024-02-21T04:02:21;13.95;;;2.38;;
33840;SDS011;20142;28.494;-16.312;2024-02-21T04:07:23;8.35;;;1.92;;
33840;SDS011;20142;28.494;-16.312;2024-02-21T04:12:25;14.65;;;2.33;;
33840;SDS011;20142;28.494;-16.312;2024-02-21T04:17:26;11.43;;;2.28;;
33840;SDS011;20142;28.494;-16.312;2024-02-21T04:22:28;14.32;;;2.60;;
33840;SDS011;20142;28.494;-16.312;2024-02-21T04:27:30;11.30;;;1.88;;
33840;SDS011;20142;28.494;-16.312;2024-02-21T04:32:31;12.02;;;2.53;;
33840;SDS011;20142;28.494;-16.312;2024-02-21T04:37:33;11.77;;;1.98;;
33840;SDS011;20142;28.494;-16.312;2024-02-21T04:42:35;12.65;;;1.95;;
33840;SDS011;20142;28.494;-16.312;2024-02-21T04:47:37;15.40;;;1.65;;
33840;SDS011;20142;28.494;-16.312;2024-02-21T04:52:38;17.95;;;2.60;;
33840;SDS011;20142;28.494;-16.312;2024-02-21T04:57:40;15.02;;;3.00;;
33840;SDS011;20142;28.494;-16.312;2024-02-21T05:02:42;14.63;;;2.05;;
33840;SDS011;20142;28.494;-16.312;2024-02-21T05:07:43;14.88;;;2.25;;
33840;SDS011;20142;28.494;-16.312;2024-02-21T05:12:45;10.93;;;2.00;;
33840;SDS011;20142;28.494;-16.312;2024-02-21T05:17:47;17.65;;;2.22;;
33840;SDS011;20142;28.494;-16.312;2024-02-21T05:22:49;10.20;;;2.38;;
33840;SDS011;20142;28.494;-16.312;2024-02-21T05:27:51;11.27;;;1.73;;
33840;SDS011;20142;28.494;-16.312;2024-02-21T05:32:56;13.85;;;1.95;;
33840;SDS011;20142;28.494;-16.312;2024-02-21T05:37:58;20.02;;;1.95;;
33840;SDS011;20142;28.494;-16.312;2024-02-21T05:43:00;11.60;;;1.50;;
33840;SDS011;20142;28.494;-16.312;2024-02-21T05:48:03;9.73;;;1.65;;
33840;SDS011;20142;28.494;-16.312;2024-02-21T05:53:05;10.25;;;1.92;;
33840;SDS011;20142;28.494;-16.312;2024-02-21T05:58:07;11.23;;;1.85;;
33840;SDS011;20142;28.494;-16.312;2024-02-21T06:03:12;13.68;;;2.03;;
33840;SDS011;20142;28.494;-16.312;2024-02-21T06:08:14;11.75;;;1.65;;
33840;SDS011;20142;28.494;-16.312;2024-02-21T06:13:15;12.15;;;1.80;;
33840;SDS011;20142;28.494;-16.312;2024-02-21T06:18:17;12.48;;;2.17;;
33840;SDS011;20142;28.494;-16.312;2024-02-21T06:23:20;9.38;;;1.67;;
33840;SDS011;20142;28.494;-16.312;2024-02-21T06:28:21;12.57;;;1.90;;
33840;SDS011;20142;28.494;-16.312;2024-02-21T06:33:23;12.13;;;1.98;;
33840;SDS011;20142;28.494;-16.312;2024-02-21T06:38:25;13.68;;;2.03;;
33840;SDS011;20142;28.494;-16.312;2024-02-21T06:43:27;9.48;;;2.00;;
33840;SDS011;20142;28.494;-16.312;2024-02-21T06:48:28;9.98;;;2.00;;
33840;SDS011;20142;28.494;-16.312;2024-02-21T06:53:30;9.68;;;1.70;;
33840;SDS011;20142;28.494;-16.312;2024-02-21T06:58:32;23.00;;;8.02;;
33840;SDS011;20142;28.494;-16.312;2024-02-21T07:03:33;12.35;;;2.35;;
33840;SDS011;20142;28.494;-16.312;2024-02-21T07:08:35;8.43;;;1.73;;
33840;SDS011;20142;28.494;-16.312;2024-02-21T07:13:37;15.73;;;2.42;;
33840;SDS011;20142;28.494;-16.312;2024-02-21T07:18:38;15.90;;;2.88;;
33840;SDS011;20142;28.494;-16.312;2024-02-21T07:23:41;13.02;;;2.15;;
33840;SDS011;20142;28.494;-16.312;2024-02-21T07:28:43;10.48;;;2.45;;
33840;SDS011;20142;28.494;-16.312;2024-02-21T07:33:44;13.05;;;3.05;;
33840;SDS011;20142;28.494;-16.312;2024-02-21T07:38:46;11.18;;;3.15;;
33840;SDS011;20142;28.494;-16.312;2024-02-21T07:43:48;18.38;;;3.42;;
33840;SDS011;20142;28.494;-16.312;2024-02-21T07:48:50;22.60;;;4.00;;
33840;SDS011;20142;28.494;-16.312;2024-02-21T07:53:52;11.02;;;2.95;;
33840;SDS011;20142;28.494;-16.312;2024-02-21T07:58:53;15.30;;;2.95;;
33840;SDS011;20142;28.494;-16.312;2024-02-21T08:03:55;14.65;;;2.60;;
33840;SDS011;20142;28.494;-16.312;2024-02-21T08:08:57;22.00;;;3.30;;
33840;SDS011;20142;28.494;-16.312;2024-02-21T08:13:58;9.80;;;2.30;;
33840;SDS011;20142;28.494;-16.312;2024-02-21T08:19:01;12.80;;;2.20;;
33840;SDS011;20142;28.494;-16.312;2024-02-21T08:24:04;20.30;;;3.00;;
33840;SDS011;20142;28.494;-16.312;2024-02-21T08:29:06;17.50;;;3.10;;
33840;SDS011;20142;28.494;-16.312;2024-02-21T08:34:08;13.18;;;2.60;;
33840;SDS011;20142;28.494;-16.312;2024-02-21T08:39:10;16.13;;;2.70;;
33840;SDS011;20142;28.494;-16.312;2024-02-21T08:44:12;20.85;;;3.35;;
33840;SDS011;20142;28.494;-16.312;2024-02-21T08:49:13;20.98;;;2.80;;
33840;SDS011;20142;28.494;-16.312;2024-02-21T08:54:15;24.17;;;3.08;;
33840;SDS011;20142;28.494;-16.312;2024-02-21T08:59:17;17.40;;;2.75;;
33840;SDS011;20142;28.494;-16.312;2024-02-21T09:04:19;25.15;;;2.92;;
33840;SDS011;20142;28.494;-16.312;2024-02-21T09:09:21;22.45;;;3.08;;
33840;SDS011;20142;28.494;-16.312;2024-02-21T09:14:22;17.55;;;2.63;;
33840;SDS011;20142;28.494;-16.312;2024-02-21T09:19:24;16.65;;;2.60;;
33840;SDS011;20142;28.494;-16.312;2024-02-21T09:24:26;13.75;;;2.40;;
33840;SDS011;20142;28.494;-16.312;2024-02-21T09:29:27;10.35;;;2.20;;
33840;SDS011;20142;28.494;-16.312;2024-02-21T09:34:29;14.68;;;2.40;;
33840;SDS011;20142;28.494;-16.312;2024-02-21T09:39:31;17.95;;;3.00;;
33840;SDS011;20142;28.494;-16.312;2024-02-21T09:44:34;13.73;;;2.13;;
33840;SDS011;20142;28.494;-16.312;2024-02-21T09:49:39;12.60;;;2.20;;
33840;SDS011;20142;28.494;-16.312;2024-02-21T09:54:42;10.13;;;2.33;;
33840;SDS011;20142;28.494;-16.312;2024-02-21T09:59:45;12.68;;;2.60;;
33840;SDS011;20142;28.494;-16.312;2024-02-21T10:04:47;14.07;;;2.88;;
33840;SDS011;20142;28.494;-16.312;2024-02-21T10:09:48;13.25;;;2.70;;
33840;SDS011;20142;28.494;-16.312;2024-02-21T10:14:59;16.20;;;3.45;;
33840;SDS011;20142;28.494;-16.312;2024-02-21T10:20:08;16.58;;;2.85;;
33840;SDS011;20142;28.494;-16.312;2024-02-21T10:25:11;15.43;;;2.22;;
33840;SDS011;20142;28.494;-16.312;2024-02-21T10:30:14;12.65;;;2.65;;
33840;SDS011;20142;28.494;-16.312;2024-02-21T10:35:24;12.77;;;2.97;;
33840;SDS011;20142;28.494;-16.312;2024-02-21T10:40:31;15.50;;;2.80;;
33840;SDS011;20142;28.494;-16.312;2024-02-21T11:01:37;14.52;;;2.85;;
33840;SDS011;20142;28.494;-16.312;2024-02-21T11:06:39;15.73;;;2.50;;
33840;SDS011;20142;28.494;-16.312;2024-02-21T11:11:43;15.27;;;3.05;;
33840;SDS011;20142;28.494;-16.312;2024-02-21T11:16:45;22.92;;;5.03;;
33840;SDS011;20142;28.494;-16.312;2024-02-21T11:21:49;16.08;;;3.20;;
33840;SDS011;20142;28.494;-16.312;2024-02-21T11:26:51;17.27;;;3.50;;
33840;SDS011;20142;28.494;-16.312;2024-02-21T11:31:53;18.40;;;3.92;;
33840;SDS011;20142;28.494;-16.312;2024-02-21T11:36:56;11.85;;;3.03;;
33840;SDS011;20142;28.494;-16.312;2024-02-21T11:42:04;20.90;;;4.55;;
33840;SDS011;20142;28.494;-16.312;2024-02-21T11:47:11;12.35;;;2.33;;
33840;SDS011;20142;28.494;-16.312;2024-02-21T11:52:15;13.55;;;2.88;;
33840;SDS011;20142;28.494;-16.312;2024-02-21T11:57:19;13.00;;;2.72;;
33840;SDS011;20142;28.494;-16.312;2024-02-21T12:02:21;13.07;;;2.83;;
33840;SDS011;20142;28.494;-16.312;2024-02-21T12:07:23;19.25;;;3.28;;
33840;SDS011;20142;28.494;-16.312;2024-02-21T12:12:25;13.40;;;2.70;;
33840;SDS011;20142;28.494;-16.312;2024-02-21T12:17:28;20.13;;;3.47;;
33840;SDS011;20142;28.494;-16.312;2024-02-21T12:22:29;14.32;;;3.05;;
33840;SDS011;20142;28.494;-16.312;2024-02-21T12:27:33;15.25;;;2.92;;
33840;SDS011;20142;28.494;-16.312;2024-02-21T12:32:35;15.23;;;2.42;;
33840;SDS011;20142;28.494;-16.312;2024-02-21T12:37:37;11.88;;;2.60;;
33840;SDS011;20142;28.494;-16.312;2024-02-21T12:42:39;20.25;;;2.80;;
33840;SDS011;20142;28.494;-16.312;2024-02-21T12:47:41;16.08;;;2.70;;
33840;SDS011;20142;28.494;-16.312;2024-02-21T12:52:42;15.93;;;2.80;;
33840;SDS011;20142;28.494;-16.312;2024-02-21T12:57:44;15.40;;;3.08;;
33840;SDS011;20142;28.494;-16.312;2024-02-21T13:02:46;11.02;;;2.38;;
33840;SDS011;20142;28.494;-16.312;2024-02-21T13:07:48;10.43;;;2.60;;
33840;SDS011;20142;28.494;-16.312;2024-02-21T13:12:50;13.35;;;2.83;;
33840;SDS011;20142;28.494;-16.312;2024-02-21T13:17:51;13.98;;;2.60;;
33840;SDS011;20142;28.494;-16.312;2024-02-21T13:22:53;16.27;;;2.72;;
33840;SDS011;20142;28.494;-16.312;2024-02-21T13:27:55;11.52;;;2.60;;
33840;SDS011;20142;28.494;-16.312;2024-02-21T13:32:56;13.43;;;2.85;;
33840;SDS011;20142;28.494;-16.312;2024-02-21T13:37:58;23.15;;;3.75;;
33840;SDS011;20142;28.494;-16.312;2024-02-21T13:43:01;11.45;;;2.58;;
33840;SDS011;20142;28.494;-16.312;2024-02-21T13:48:02;9.48;;;2.55;;
33840;SDS011;20142;28.494;-16.312;2024-02-21T13:53:06;9.05;;;2.33;;
33840;SDS011;20142;28.494;-16.312;2024-02-21T13:58:08;14.80;;;2.83;;
33840;SDS011;20142;28.494;-16.312;2024-02-21T14:03:10;15.27;;;3.05;;
33840;SDS011;20142;28.494;-16.312;2024-02-21T14:08:12;13.40;;;3.00;;
33840;SDS011;20142;28.494;-16.312;2024-02-21T14:13:14;13.75;;;2.63;;
33840;SDS011;20142;28.494;-16.312;2024-02-21T14:18:18;15.90;;;3.47;;
33840;SDS011;20142;28.494;-16.312;2024-02-21T14:23:19;25.02;;;3.58;;
33840;SDS011;20142;28.494;-16.312;2024-02-21T14:28:22;19.10;;;4.22;;
33840;SDS011;20142;28.494;-16.312;2024-02-21T14:33:23;15.77;;;3.10;;
33840;SDS011;20142;28.494;-16.312;2024-02-21T14:38:25;20.70;;;3.28;;
33840;SDS011;20142;28.494;-16.312;2024-02-21T14:43:28;15.48;;;2.85;;
33840;SDS011;20142;28.494;-16.312;2024-02-21T14:48:30;13.48;;;3.10;;
33840;SDS011;20142;28.494;-16.312;2024-02-21T14:53:32;17.52;;;3.40;;
33840;SDS011;20142;28.494;-16.312;2024-02-21T14:58:34;16.30;;;2.92;;
33840;SDS011;20142;28.494;-16.312;2024-02-21T15:03:35;10.40;;;3.42;;
33840;SDS011;20142;28.494;-16.312;2024-02-21T15:08:37;11.48;;;2.88;;
33840;SDS011;20142;28.494;-16.312;2024-02-21T15:13:39;10.85;;;2.80;;
33840;SDS011;20142;28.494;-16.312;2024-02-21T15:18:41;17.38;;;2.67;;
33840;SDS011;20142;28.494;-16.312;2024-02-21T15:23:42;10.13;;;2.65;;
33840;SDS011;20142;28.494;-16.312;2024-02-21T15:28:44;7.57;;;2.33;;
33840;SDS011;20142;28.494;-16.312;2024-02-21T15:33:46;8.07;;;2.33;;
33840;SDS011;20142;28.494;-16.312;2024-02-21T15:38:47;10.85;;;2.53;;
33840;SDS011;20142;28.494;-16.312;2024-02-21T15:43:49;11.30;;;3.17;;
33840;SDS011;20142;28.494;-16.312;2024-02-21T15:48:51;12.35;;;2.92;;
33840;SDS011;20142;28.494;-16.312;2024-02-21T15:53:54;7.68;;;2.30;;
33840;SDS011;20142;28.494;-16.312;2024-02-21T15:58:57;10.18;;;2.97;;
33840;SDS011;20142;28.494;-16.312;2024-02-21T16:03:59;9.77;;;2.67;;
33840;SDS011;20142;28.494;-16.312;2024-02-21T16:09:01;9.98;;;2.97;;
33840;SDS011;20142;28.494;-16.312;2024-02-21T16:14:05;11.55;;;2.88;;
33840;SDS011;20142;28.494;-16.312;2024-02-21T16:19:07;13.55;;;2.90;;
33840;SDS011;20142;28.494;-16.312;2024-02-21T16:24:09;9.38;;;2.92;;
33840;SDS011;20142;28.494;-16.312;2024-02-21T16:29:11;8.38;;;2.50;;
33840;SDS011;20142;28.494;-16.312;2024-02-21T16:34:14;10.63;;;2.83;;
33840;SDS011;20142;28.494;-16.312;2024-02-21T16:39:16;7.65;;;2.80;;
33840;SDS011;20142;28.494;-16.312;2024-02-21T16:44:18;10.80;;;2.58;;
33840;SDS011;20142;28.494;-16.312;2024-02-21T16:49:20;12.23;;;2.78;;
33840;SDS011;20142;28.494;-16.312;2024-02-21T16:54:23;10.27;;;2.90;;
33840;SDS011;20142;28.494;-16.312;2024-02-21T16:59:28;11.43;;;3.13;;
33840;SDS011;20142;28.494;-16.312;2024-02-21T17:04:30;11.90;;;2.65;;
33840;SDS011;20142;28.494;-16.312;2024-02-21T17:09:32;13.73;;;3.00;;
33840;SDS011;20142;28.494;-16.312;2024-02-21T17:14:34;11.50;;;2.58;;
33840;SDS011;20142;28.494;-16.312;2024-02-21T17:19:35;10.95;;;2.65;;
33840;SDS011;20142;28.494;-16.312;2024-02-21T17:24:38;11.27;;;2.75;;
33840;SDS011;20142;28.494;-16.312;2024-02-21T17:29:39;12.63;;;3.50;;
33840;SDS011;20142;28.494;-16.312;2024-02-21T17:34:41;10.30;;;2.78;;
33840;SDS011;20142;28.494;-16.312;2024-02-21T17:39:43;10.70;;;3.08;;
33840;SDS011;20142;28.494;-16.312;2024-02-21T17:44:45;10.52;;;2.92;;
33840;SDS011;20142;28.494;-16.312;2024-02-21T17:49:48;9.77;;;3.00;;
33840;SDS011;20142;28.494;-16.312;2024-02-21T17:54:51;10.43;;;3.00;;
33840;SDS011;20142;28.494;-16.312;2024-02-21T17:59:52;11.90;;;3.20;;
33840;SDS011;20142;28.494;-16.312;2024-02-21T18:04:54;11.60;;;3.08;;
33840;SDS011;20142;28.494;-16.312;2024-02-21T18:09:56;13.30;;;3.22;;
33840;SDS011;20142;28.494;-16.312;2024-02-21T18:14:57;9.38;;;2.70;;
33840;SDS011;20142;28.494;-16.312;2024-02-21T18:19:59;17.20;;;3.33;;
33840;SDS011;20142;28.494;-16.312;2024-02-21T18:25:03;16.55;;;3.67;;
33840;SDS011;20142;28.494;-16.312;2024-02-21T18:30:09;11.65;;;3.10;;
33840;SDS011;20142;28.494;-16.312;2024-02-21T18:35:12;12.05;;;2.83;;
33840;SDS011;20142;28.494;-16.312;2024-02-21T18:40:15;14.00;;;3.53;;
33840;SDS011;20142;28.494;-16.312;2024-02-21T18:45:17;14.93;;;3.63;;
33840;SDS011;20142;28.494;-16.312;2024-02-21T18:50:19;20.13;;;4.20;;
33840;SDS011;20142;28.494;-16.312;2024-02-21T18:55:21;15.07;;;3.78;;
33840;SDS011;20142;28.494;-16.312;2024-02-21T19:00:22;17.45;;;3.50;;
33840;SDS011;20142;28.494;-16.312;2024-02-21T19:05:25;16.70;;;3.97;;
33840;SDS011;20142;28.494;-16.312;2024-02-21T19:10:27;22.40;;;4.30;;
33840;SDS011;20142;28.494;-16.312;2024-02-21T19:15:28;15.27;;;3.45;;
33840;SDS011;20142;28.494;-16.312;2024-02-21T19:20:30;17.63;;;3.88;;
33840;SDS011;20142;28.494;-16.312;2024-02-21T19:25:32;25.15;;;4.40;;
33840;SDS011;20142;28.494;-16.312;2024-02-21T19:30:33;20.30;;;3.70;;
33840;SDS011;20142;28.494;-16.312;2024-02-21T19:35:35;18.17;;;4.53;;
33840;SDS011;20142;28.494;-16.312;2024-02-21T19:40:38;21.02;;;3.80;;
33840;SDS011;20142;28.494;-16.312;2024-02-21T19:45:39;16.23;;;3.55;;
33840;SDS011;20142;28.494;-16.312;2024-02-21T19:50:41;25.20;;;4.72;;
33840;SDS011;20142;28.494;-16.312;2024-02-21T19:55:43;14.63;;;3.97;;
33840;SDS011;20142;28.494;-16.312;2024-02-21T20:00:45;24.70;;;4.20;;
33840;SDS011;20142;28.494;-16.312;2024-02-21T20:05:47;23.98;;;4.15;;
33840;SDS011;20142;28.494;-16.312;2024-02-21T20:10:50;20.08;;;4.40;;
33840;SDS011;20142;28.494;-16.312;2024-02-21T20:15:52;20.10;;;4.55;;
33840;SDS011;20142;28.494;-16.312;2024-02-21T20:20:54;17.73;;;4.32;;
33840;SDS011;20142;28.494;-16.312;2024-02-21T20:25:57;19.85;;;4.18;;
33840;SDS011;20142;28.494;-16.312;2024-02-21T20:30:58;19.92;;;4.25;;
33840;SDS011;20142;28.494;-16.312;2024-02-21T20:36:01;20.90;;;4.07;;
33840;SDS011;20142;28.494;-16.312;2024-02-21T20:41:03;25.38;;;4.53;;
33840;SDS011;20142;28.494;-16.312;2024-02-21T20:46:05;27.15;;;4.50;;
33840;SDS011;20142;28.494;-16.312;2024-02-21T20:51:07;23.77;;;4.53;;
33840;SDS011;20142;28.494;-16.312;2024-02-21T20:56:09;23.83;;;4.55;;
33840;SDS011;20142;28.494;-16.312;2024-02-21T21:01:11;24.88;;;4.72;;
33840;SDS011;20142;28.494;-16.312;2024-02-21T21:06:13;23.83;;;4.60;;
33840;SDS011;20142;28.494;-16.312;2024-02-21T21:11:15;27.52;;;4.80;;
33840;SDS011;20142;28.494;-16.312;2024-02-21T21:16:17;19.45;;;4.40;;
33840;SDS011;20142;28.494;-16.312;2024-02-21T21:21:19;21.40;;;4.00;;
33840;SDS011;20142;28.494;-16.312;2024-02-21T21:26:22;28.95;;;5.60;;
33840;SDS011;20142;28.494;-16.312;2024-02-21T21:31:24;27.23;;;5.07;;
33840;SDS011;20142;28.494;-16.312;2024-02-21T21:36:26;29.70;;;5.28;;
33840;SDS011;20142;28.494;-16.312;2024-02-21T21:41:29;26.13;;;5.25;;
33840;SDS011;20142;28.494;-16.312;2024-02-21T21:46:31;22.15;;;5.03;;
33840;SDS011;20142;28.494;-16.312;2024-02-21T21:51:33;26.60;;;6.13;;
33840;SDS011;20142;28.494;-16.312;2024-02-21T21:56:36;25.00;;;5.20;;
33840;SDS011;20142;28.494;-16.312;2024-02-21T22:01:37;26.02;;;5.53;;
33840;SDS011;20142;28.494;-16.312;2024-02-21T22:06:39;33.40;;;6.10;;
33840;SDS011;20142;28.494;-16.312;2024-02-21T22:11:41;34.65;;;5.90;;
33840;SDS011;20142;28.494;-16.312;2024-02-21T22:16:42;41.65;;;5.72;;
33840;SDS011;20142;28.494;-16.312;2024-02-21T22:21:45;30.90;;;5.80;;
33840;SDS011;20142;28.494;-16.312;2024-02-21T22:26:46;37.17;;;5.85;;
33840;SDS011;20142;28.494;-16.312;2024-02-21T22:31:51;32.42;;;5.55;;
33840;SDS011;20142;28.494;-16.312;2024-02-21T22:36:52;30.45;;;5.53;;
33840;SDS011;20142;28.494;-16.312;2024-02-21T22:41:54;30.45;;;5.15;;
33840;SDS011;20142;28.494;-16.312;2024-02-21T22:46:56;28.40;;;5.22;;
33840;SDS011;20142;28.494;-16.312;2024-02-21T22:51:57;24.20;;;5.38;;
33840;SDS011;20142;28.494;-16.312;2024-02-21T22:56:59;23.17;;;5.03;;
33840;SDS011;20142;28.494;-16.312;2024-02-21T23:02:03;27.08;;;4.88;;
33840;SDS011;20142;28.494;-16.312;2024-02-21T23:07:04;21.67;;;5.25;;
33840;SDS011;20142;28.494;-16.312;2024-02-21T23:12:06;29.17;;;4.85;;
33840;SDS011;20142;28.494;-16.312;2024-02-21T23:17:08;30.23;;;4.80;;
33840;SDS011;20142;28.494;-16.312;2024-02-21T23:22:10;27.42;;;5.68;;
33840;SDS011;20142;28.494;-16.312;2024-02-21T23:27:12;26.15;;;5.25;;
33840;SDS011;20142;28.494;-16.312;2024-02-21T23:32:13;26.25;;;5.00;;
33840;SDS011;20142;28.494;-16.312;2024-02-21T23:37:15;26.80;;;5.18;;
33840;SDS011;20142;28.494;-16.312;2024-02-21T23:42:17;25.58;;;5.53;;
33840;SDS011;20142;28.494;-16.312;2024-02-21T23:47:18;32.38;;;5.60;;
33840;SDS011;20142;28.494;-16.312;2024-02-21T23:52:23;30.05;;;5.50;;
33840;SDS011;20142;28.494;-16.312;2024-02-21T23:57:25;25.73;;;5.28;;
